El Granada, CA (94018)

6:06 PM PDT on August 20, 2014 (GMT -0700)
El Granada Highlands | Change Station
CLOSE
Current Station
Personal Weather Station
Location: Half Moon Bay, CA
Elevation: 551 ft
Nearby Weather Stations

Elev 551 ft 37.51 °N, 122.46 °W | Updated 7 minutes ago

Mostly Cloudy
Mostly Cloudy
64.4 °F
Feels Like 64.4 °F
N
-
Wind Variable Wind from North

Today
High -- | Low -- °F
--% Chance of Precip.
Yesterday
High -- | Low -- °F
Precip. -- in
6:30 AM 7:55 PM
Waning Crescent, 18% visible
Pressure 29.93 in
Visibility 9.0 miles
Clouds Scattered Clouds 1400 ft
Mostly Cloudy 2400 ft
Dew Point 58 °F
Humidity 79%
Rainfall -999.00 in
Snow Depth Not available.
UV 1 out of 12
Pollen 4.90 out of 12
Air Quality Not available.
Flu Activity Not available.
METAR KHAF 210055Z AUTO 19009KT 9SM SCT014 BKN024 17/15 A2993 RMK AO2

More Conditions Fewer Conditions

Pressure 29.93 in
Visibility 9.0 miles
Clouds Scattered Clouds 1400 ft
Mostly Cloudy 2400 ft
Dew Point 58 °F
Humidity 79%
Rainfall -999.00 in
Snow Depth Not available.
UV 1 out of 12
Pollen 4.90 out of 12
Air Quality Not available.
Flu Activity Not available.
METAR KHAF 210055Z AUTO 19009KT 9SM SCT014 BKN024 17/15 A2993 RMK AO2

More Conditions Fewer Conditions

10-Day Weather Forecast

Almanac

Astronomy

Aug. 20, 2014 Rise Set
Actual Time 6:30 AM PDT 7:55 PM PDT
Civil Twilight 6:02 AM PDT 8:22 PM PDT
Nautical Twilight 5:29 AM PDT 8:55 PM PDT
Astronomical Twilight 4:55 AM PDT 9:30 PM PDT
Moon 2:16 AM PDT (8/20) 4:42 PM PDT (8/20)
Length of Visible Light 14h 20m
Length of Day
13h 25m
Tomorrow will be 2m 11s shorter.
Waning Crescent, 18% of the Moon is Illuminated
Today
Waning Crescent
Aug 25
New
Sep 2
First Quarter
Sep 8
Full
Sep 15
Last Quarter

Today's Extremes

State Highs State Lows

Community

WunderPhotos

Upload Photos

1,745,823 photos uploaded!

WunderBlogs® & News

Nearby

Snow Depth

Station Depth Elevation
Leavitt Lake 0 in 9400 ft
Leavitt Meadows 0 in 7200 ft
Summit Meadow 0 in 9122 ft
Adin Mountain 0 in 6200 ft
Cedar Pass 0 in 7100 ft

Earthquake Activity

City Distance Mag. Time & Date
King City, California 121 miles 2.7 10:26 PM PDT
2014-08-15
King City, California 121 miles 2.9 8:01 PM PDT
2014-08-14
The Geysers, California 89 miles 2.6 8:55 PM PDT
2014-08-13
Minimum magnitude displayed is 2.5.

Coastal Water Temperatures

Place Temperature
Point Reyes, CA 60.1 °F
San Francisco, CA 64.0 °F
Richmond, CA 66.0 °F

Nearby Weather Stations